WetterOnline ( http://www.wetteronline.de )

Wetter aktuell Grevesmühlen

Aktuelles Wetter: Boltenhagen (17m)

6-stündlich | Neueste Meldungen
Ortszeit Temperatur Wetter
Do, 25.05. 8:00 11.9° C wolkig
Do, 25.05. 2:00 11.3° C leicht bewölkt
Mi, 24.05. 20:00 15.4° C bewölkt
Mi, 24.05. 14:00 15.6° C bedeckt
Ortszeit Temperatur Wetter
Do, 25.05. 10:30 14.7° C wolkig
Do, 25.05. 10:00 13.8° C wolkig
Do, 25.05. 9:30 13.0° C bewölkt
Do, 25.05. 9:00 12.8° C bewölkt
Do, 25.05. 8:30 12.3° C bewölkt
Do, 25.05. 8:00 11.9° C wolkig
Ortszeit Relative Feuchte Sichtweite
Do, 25.05. 8:00 85% 20 km
Do, 25.05. 2:00 92% 13 km
Mi, 24.05. 20:00 71% 30 km
Mi, 24.05. 14:00 56% 9 km
Ortszeit Relative Feuchte Sichtweite
Do, 25.05. 10:30 71% 16 km
Do, 25.05. 10:00 72% 13 km
Do, 25.05. 9:30 74% 12 km
Do, 25.05. 9:00 77% 11 km
Do, 25.05. 8:30 81% 22 km
Do, 25.05. 8:00 85% 20 km
Ortszeit Niederschlagsmenge Niederschlagsart
Do, 25.05. 8:00 0,0 l/m2 in 12 Std. -
Do, 25.05. 2:00 0,0 l/m2 in 6 Std. -
Mi, 24.05. 20:00 0,0 l/m2 in 12 Std. -
Mi, 24.05. 14:00 0,0 l/m2 in 6 Std. -
Ortszeit Niederschlagsmenge Niederschlagsart
Do, 25.05. 10:30 keine Meldung -
Do, 25.05. 10:00 0,0 l/m2 in 1 Std. -
Do, 25.05. 9:30 keine Meldung -
Do, 25.05. 9:00 0,0 l/m2 in 1 Std. -
Do, 25.05. 8:30 keine Meldung -
Do, 25.05. 8:00 0,0 l/m2 in 1 Std. -
Ortszeit Stärke Spitze Richtung
km/h Bft. km/h Grad Sektor
Do, 25.05. 8:00 24 4 41 260° W
Do, 25.05. 2:00 20 4 33 260° W
Mi, 24.05. 20:00 14 3 40 270° W
Mi, 24.05. 14:00 24 4 46 300° NW
Ortszeit Stärke Spitze Richtung
km/h Bft. km/h Grad Sektor
Do, 25.05. 10:30 22 4 32 280° W
Do, 25.05. 10:00 25 4 40 270° W
Do, 25.05. 9:30 25 4 40 280° W
Do, 25.05. 9:00 24 4 41 280° W
Do, 25.05. 8:30 22 4 36 280° W
Do, 25.05. 8:00 24 4 41 260° W
Ortszeit Untergrenze Bedeckung Gattung
total tief tief mittel hoch
Do, 25.05. 8:00 360 m 5/8 5/8 - - -
Do, 25.05. 2:00 9000 m 4/8 0/8 - - -
Mi, 24.05. 20:00 1140 m 7/8 7/8 - - -
Mi, 24.05. 14:00 1380 m 8/8 8/8 - - -
Ortszeit Bedeckungsgrad in Achtel und Wolkenuntergrenze
Do, 25.05. 10:30 2(660m) 3(810m) 5(1500m)
Do, 25.05. 10:00 3(600m) 6(750m)
Do, 25.05. 9:30 5(600m) 7(810m)
Do, 25.05. 9:00 7(600m) 7(780m)
Do, 25.05. 8:30 2(360m) 7(600m) 7(1440m)
Do, 25.05. 8:00 3(360m) 5(540m) 5(10500m)
Ortszeit Luftdruck NN (hPa) Tendenz (hPa in 3 Std.)
Do, 25.05. 8:00 1021 + 0,2
Do, 25.05. 2:00 1021 - 0,1
Mi, 24.05. 20:00 1020 + 0,3
Mi, 24.05. 14:00 1019 + 0,3
Ortszeit Luftdruck NN (hPa) Tendenz (hPa in 3 Std.)
Do, 25.05. 10:30 1021 + 0,5
Do, 25.05. 10:00 1021 + 0,7
Do, 25.05. 9:30 1021 + 0,5
Do, 25.05. 9:00 1021 + 0,5
Do, 25.05. 8:30 1021 + 0,3
Do, 25.05. 8:00 1021 + 0,2
Ortszeit Schneehöhe (cm)
Do, 25.05. 8:00 -
Do, 25.05. 2:00 -
Mi, 24.05. 20:00 -
Mi, 24.05. 14:00 -
Ortszeit Schneehöhe (cm)
Do, 25.05. 10:30 -
Do, 25.05. 10:00 -
Do, 25.05. 9:30 -
Do, 25.05. 9:00 -
Do, 25.05. 8:30 -
Do, 25.05. 8:00 -
Link zu dieser Seite / Seite empfehlen

Das Wetter in ...